Aérodrome :
LOGIN :

S'inscrire | Disclaimer

   EN    FR    IT 

 










Légende :    VFR   VFR Marginal   IFR   IFR Intensif   IFR Très Intensif
Visi : 
Plafond : 
>= 8 km
>= 3000ft
5 à 8 km
1000 à 3000 ft
1500m à 5 km
500 à 1000 ft
800 à 1500m
200 à 500 ft
< 800m
< 200 ft
Symboles :   Orages  Brouillard  Fortes neiges  Fortes précipitations  Vent > 20 kt
SIGMETs :   Divers  Orages  Givrage  Turbulence  Onde Orograph.  Cendres Volcan.






- Altitude de l'aérodrome : 26 ft
- Code IATA : BIA


LFKB - Bastia

DERNIER METAR :
  • 211900Z AUTO 17004KT 140V200 9999 -RA FEW045 BKN054 BKN064 11/08 Q1018 TEMPO 4000 RA BKN013

METARs EXPIRÉS :
  • 211830Z AUTO 19006KT 9999 -RA BKN066 OVC076 11/08 Q1018 TEMPO 4000 RA BKN013
  • 211800Z AUTO 18009KT 9999 -RA BKN070 OVC084 13/07 Q1017 TEMPO 4000 RA BKN013
  • 211730Z AUTO 15006KT 9999 FEW072 OVC094 14/09 Q1017 TEMPO 4000 RA BKN013
  • 211700Z AUTO 14009KT 9999 FEW026/// OVC098/// ///TCU 14/09 Q1017 TEMPO 4000 RA BKN020 FEW040CB OVC050
  • 211630Z AUTO 14010KT 9999 BKN025 BKN066 OVC096 14/09 Q1017 TEMPO 4000 RA BKN020 FEW040CB OVC050

TAF TAF LFKB
Valide du 21 à 15h jusqu'au 22 à 15h UTC


211400Z 2115/2215 14013KT 9999 SCT025 OVC070 TX17/2212Z TN08/2204Z
TEMPO 2115/2202 4000 RA BKN020 FEW040CB OVC050
TEMPO 2118/2209 BKN013
BECMG 2119/2121 23004KT
BECMG 2211/2213 SCT030
ATIS : +33 4 95 59 19 40



MET'MAP, la Météo Aéronautique d'un coup d'oeil ! - Copyright ORBIFLY Décembre 2007 - Disclaimer

ORBIFLY MET'MAP TEAM :

Programmation & Développement : Alexandra Zaïnal
Sur une idée originale de : Baudouin d'Aumeries
Assistance à la programmation : Marc-Olivier Méhu
Soutien technique & logistique : Manuel Goepfert

Contact : metmap@orbifly.com




SOURCES & CREDITS :

   NOAA